sensor_id;sensor_type;location;lat;lon;timestamp;P1;durP1;ratioP1;P2;durP2;ratioP2
53765;SDS011;39682;51.490;7.310;2023-04-15T00:00:58;14.27;;;8.80;;
53765;SDS011;39682;51.490;7.310;2023-04-15T00:03:25;13.43;;;8.57;;
53765;SDS011;39682;51.490;7.310;2023-04-15T00:05:51;9.93;;;7.03;;
53765;SDS011;39682;51.490;7.310;2023-04-15T00:08:17;13.68;;;8.65;;
53765;SDS011;39682;51.490;7.310;2023-04-15T00:10:43;12.85;;;9.07;;
53765;SDS011;39682;51.490;7.310;2023-04-15T00:13:10;12.27;;;8.27;;
53765;SDS011;39682;51.490;7.310;2023-04-15T00:15:36;10.38;;;7.53;;
53765;SDS011;39682;51.490;7.310;2023-04-15T00:18:03;10.65;;;7.43;;
53765;SDS011;39682;51.490;7.310;2023-04-15T00:20:29;14.98;;;8.32;;
53765;SDS011;39682;51.490;7.310;2023-04-15T00:22:55;9.88;;;6.88;;
53765;SDS011;39682;51.490;7.310;2023-04-15T00:25:22;16.98;;;7.93;;
53765;SDS011;39682;51.490;7.310;2023-04-15T00:27:48;13.02;;;6.47;;
53765;SDS011;39682;51.490;7.310;2023-04-15T00:30:14;11.98;;;7.30;;
53765;SDS011;39682;51.490;7.310;2023-04-15T00:32:40;9.95;;;6.32;;
53765;SDS011;39682;51.490;7.310;2023-04-15T00:35:06;11.27;;;6.32;;
53765;SDS011;39682;51.490;7.310;2023-04-15T00:37:32;9.90;;;6.40;;
53765;SDS011;39682;51.490;7.310;2023-04-15T00:39:59;10.10;;;6.30;;
53765;SDS011;39682;51.490;7.310;2023-04-15T00:42:25;12.05;;;7.85;;
53765;SDS011;39682;51.490;7.310;2023-04-15T00:44:52;11.80;;;7.85;;
53765;SDS011;39682;51.490;7.310;2023-04-15T00:47:18;11.73;;;7.00;;
53765;SDS011;39682;51.490;7.310;2023-04-15T00:49:45;12.32;;;6.40;;
53765;SDS011;39682;51.490;7.310;2023-04-15T00:52:11;13.13;;;7.28;;
53765;SDS011;39682;51.490;7.310;2023-04-15T00:54:37;13.45;;;8.18;;
53765;SDS011;39682;51.490;7.310;2023-04-15T00:57:04;12.00;;;7.38;;
53765;SDS011;39682;51.490;7.310;2023-04-15T00:59:30;16.90;;;8.75;;
53765;SDS011;39682;51.490;7.310;2023-04-15T01:01:58;13.57;;;7.10;;
53765;SDS011;39682;51.490;7.310;2023-04-15T01:04:24;11.68;;;6.82;;
53765;SDS011;39682;51.490;7.310;2023-04-15T01:06:50;9.75;;;7.07;;
53765;SDS011;39682;51.490;7.310;2023-04-15T01:09:16;11.85;;;7.85;;
53765;SDS011;39682;51.490;7.310;2023-04-15T01:11:42;11.70;;;7.35;;
53765;SDS011;39682;51.490;7.310;2023-04-15T01:14:09;15.65;;;7.50;;
53765;SDS011;39682;51.490;7.310;2023-04-15T01:16:35;14.55;;;8.20;;
53765;SDS011;39682;51.490;7.310;2023-04-15T01:19:03;16.23;;;7.55;;
53765;SDS011;39682;51.490;7.310;2023-04-15T01:21:29;14.80;;;7.78;;
53765;SDS011;39682;51.490;7.310;2023-04-15T01:23:55;13.85;;;8.00;;
53765;SDS011;39682;51.490;7.310;2023-04-15T01:26:22;16.67;;;8.05;;
53765;SDS011;39682;51.490;7.310;2023-04-15T01:28:48;13.80;;;8.32;;
53765;SDS011;39682;51.490;7.310;2023-04-15T01:31:15;16.67;;;7.72;;
53765;SDS011;39682;51.490;7.310;2023-04-15T01:33:41;13.43;;;7.32;;
53765;SDS011;39682;51.490;7.310;2023-04-15T01:36:08;14.68;;;8.68;;
53765;SDS011;39682;51.490;7.310;2023-04-15T01:38:35;16.35;;;8.57;;
53765;SDS011;39682;51.490;7.310;2023-04-15T01:41:01;11.30;;;7.40;;
53765;SDS011;39682;51.490;7.310;2023-04-15T01:43:28;11.85;;;8.32;;
53765;SDS011;39682;51.490;7.310;2023-04-15T01:45:54;18.38;;;9.13;;
53765;SDS011;39682;51.490;7.310;2023-04-15T01:48:21;15.98;;;7.75;;
53765;SDS011;39682;51.490;7.310;2023-04-15T01:50:47;12.27;;;8.00;;
53765;SDS011;39682;51.490;7.310;2023-04-15T01:53:13;13.23;;;8.38;;
53765;SDS011;39682;51.490;7.310;2023-04-15T01:55:39;16.35;;;8.23;;
53765;SDS011;39682;51.490;7.310;2023-04-15T01:58:05;13.35;;;7.63;;
53765;SDS011;39682;51.490;7.310;2023-04-15T02:00:31;16.20;;;8.80;;
53765;SDS011;39682;51.490;7.310;2023-04-15T02:02:57;17.80;;;8.30;;
53765;SDS011;39682;51.490;7.310;2023-04-15T02:05:24;15.20;;;9.45;;
53765;SDS011;39682;51.490;7.310;2023-04-15T02:07:50;15.68;;;9.10;;
53765;SDS011;39682;51.490;7.310;2023-04-15T02:10:17;15.40;;;8.25;;
53765;SDS011;39682;51.490;7.310;2023-04-15T02:12:43;16.02;;;8.55;;
53765;SDS011;39682;51.490;7.310;2023-04-15T02:15:09;15.82;;;9.10;;
53765;SDS011;39682;51.490;7.310;2023-04-15T02:17:36;14.30;;;8.95;;
53765;SDS011;39682;51.490;7.310;2023-04-15T02:20:02;17.10;;;8.73;;
53765;SDS011;39682;51.490;7.310;2023-04-15T02:22:32;16.85;;;9.65;;
53765;SDS011;39682;51.490;7.310;2023-04-15T02:24:58;14.30;;;8.50;;
53765;SDS011;39682;51.490;7.310;2023-04-15T02:27:24;13.90;;;9.30;;
53765;SDS011;39682;51.490;7.310;2023-04-15T02:29:52;18.50;;;10.00;;
53765;SDS011;39682;51.490;7.310;2023-04-15T02:32:18;13.85;;;8.70;;
53765;SDS011;39682;51.490;7.310;2023-04-15T02:34:44;15.07;;;8.98;;
53765;SDS011;39682;51.490;7.310;2023-04-15T02:37:11;13.20;;;9.10;;
53765;SDS011;39682;51.490;7.310;2023-04-15T02:39:37;13.95;;;8.75;;
53765;SDS011;39682;51.490;7.310;2023-04-15T02:42:03;13.25;;;8.75;;
53765;SDS011;39682;51.490;7.310;2023-04-15T02:44:30;14.82;;;9.13;;
53765;SDS011;39682;51.490;7.310;2023-04-15T02:46:57;17.33;;;10.00;;
53765;SDS011;39682;51.490;7.310;2023-04-15T02:49:23;15.77;;;9.55;;
53765;SDS011;39682;51.490;7.310;2023-04-15T02:51:49;14.00;;;8.57;;
53765;SDS011;39682;51.490;7.310;2023-04-15T02:54:16;13.10;;;8.70;;
53765;SDS011;39682;51.490;7.310;2023-04-15T02:56:42;14.13;;;9.57;;
53765;SDS011;39682;51.490;7.310;2023-04-15T02:59:08;14.68;;;8.35;;
53765;SDS011;39682;51.490;7.310;2023-04-15T03:01:34;16.95;;;9.95;;
53765;SDS011;39682;51.490;7.310;2023-04-15T03:04:00;13.88;;;8.77;;
53765;SDS011;39682;51.490;7.310;2023-04-15T03:06:26;14.55;;;9.63;;
53765;SDS011;39682;51.490;7.310;2023-04-15T03:08:52;15.40;;;9.52;;
53765;SDS011;39682;51.490;7.310;2023-04-15T03:11:18;15.15;;;9.15;;
53765;SDS011;39682;51.490;7.310;2023-04-15T03:13:45;15.02;;;10.20;;
53765;SDS011;39682;51.490;7.310;2023-04-15T03:16:11;13.48;;;9.20;;
53765;SDS011;39682;51.490;7.310;2023-04-15T03:18:37;16.40;;;10.05;;
53765;SDS011;39682;51.490;7.310;2023-04-15T03:21:03;15.90;;;8.57;;
53765;SDS011;39682;51.490;7.310;2023-04-15T03:23:30;17.23;;;9.30;;
53765;SDS011;39682;51.490;7.310;2023-04-15T03:25:56;19.73;;;9.52;;
53765;SDS011;39682;51.490;7.310;2023-04-15T03:28:23;15.60;;;8.45;;
53765;SDS011;39682;51.490;7.310;2023-04-15T03:30:49;12.50;;;9.18;;
53765;SDS011;39682;51.490;7.310;2023-04-15T03:33:15;16.35;;;9.13;;
53765;SDS011;39682;51.490;7.310;2023-04-15T03:35:41;12.07;;;8.27;;
53765;SDS011;39682;51.490;7.310;2023-04-15T03:38:07;10.48;;;8.13;;
53765;SDS011;39682;51.490;7.310;2023-04-15T03:40:33;13.02;;;8.00;;
53765;SDS011;39682;51.490;7.310;2023-04-15T03:42:59;12.52;;;8.43;;
53765;SDS011;39682;51.490;7.310;2023-04-15T03:45:25;12.02;;;7.43;;
53765;SDS011;39682;51.490;7.310;2023-04-15T03:47:51;11.60;;;7.80;;
53765;SDS011;39682;51.490;7.310;2023-04-15T03:50:17;15.73;;;7.60;;
53765;SDS011;39682;51.490;7.310;2023-04-15T03:52:43;13.15;;;7.43;;
53765;SDS011;39682;51.490;7.310;2023-04-15T03:55:10;14.00;;;7.63;;
53765;SDS011;39682;51.490;7.310;2023-04-15T03:57:36;15.32;;;8.48;;
53765;SDS011;39682;51.490;7.310;2023-04-15T04:00:06;15.18;;;7.93;;
53765;SDS011;39682;51.490;7.310;2023-04-15T04:02:33;12.63;;;7.78;;
53765;SDS011;39682;51.490;7.310;2023-04-15T04:04:59;12.90;;;8.27;;
53765;SDS011;39682;51.490;7.310;2023-04-15T04:07:25;11.98;;;7.35;;
53765;SDS011;39682;51.490;7.310;2023-04-15T04:09:51;11.30;;;8.18;;
53765;SDS011;39682;51.490;7.310;2023-04-15T04:12:17;14.30;;;8.55;;
53765;SDS011;39682;51.490;7.310;2023-04-15T04:14:43;12.02;;;8.30;;
53765;SDS011;39682;51.490;7.310;2023-04-15T04:17:09;11.77;;;8.00;;
53765;SDS011;39682;51.490;7.310;2023-04-15T04:19:35;14.52;;;7.47;;
53765;SDS011;39682;51.490;7.310;2023-04-15T04:22:01;12.18;;;8.07;;
53765;SDS011;39682;51.490;7.310;2023-04-15T04:24:27;10.40;;;7.50;;
53765;SDS011;39682;51.490;7.310;2023-04-15T04:26:53;14.07;;;8.23;;
53765;SDS011;39682;51.490;7.310;2023-04-15T04:29:21;13.57;;;8.77;;
53765;SDS011;39682;51.490;7.310;2023-04-15T04:31:47;17.55;;;8.48;;
53765;SDS011;39682;51.490;7.310;2023-04-15T04:34:13;17.38;;;7.78;;
53765;SDS011;39682;51.490;7.310;2023-04-15T04:36:39;13.05;;;8.95;;
53765;SDS011;39682;51.490;7.310;2023-04-15T04:39:05;15.88;;;9.10;;
53765;SDS011;39682;51.490;7.310;2023-04-15T04:41:31;12.60;;;9.07;;
53765;SDS011;39682;51.490;7.310;2023-04-15T04:43:58;18.05;;;8.88;;
53765;SDS011;39682;51.490;7.310;2023-04-15T04:46:24;15.25;;;9.13;;
53765;SDS011;39682;51.490;7.310;2023-04-15T04:48:50;15.13;;;8.98;;
53765;SDS011;39682;51.490;7.310;2023-04-15T04:51:16;15.85;;;9.02;;
53765;SDS011;39682;51.490;7.310;2023-04-15T04:53:42;16.83;;;10.23;;
53765;SDS011;39682;51.490;7.310;2023-04-15T04:56:08;15.65;;;9.77;;
53765;SDS011;39682;51.490;7.310;2023-04-15T04:58:34;18.88;;;10.32;;
53765;SDS011;39682;51.490;7.310;2023-04-15T05:01:00;18.13;;;9.95;;
53765;SDS011;39682;51.490;7.310;2023-04-15T05:03:26;18.77;;;10.85;;
53765;SDS011;39682;51.490;7.310;2023-04-15T05:05:52;14.68;;;9.48;;
53765;SDS011;39682;51.490;7.310;2023-04-15T05:08:19;15.20;;;9.73;;
53765;SDS011;39682;51.490;7.310;2023-04-15T05:10:45;16.75;;;10.50;;
53765;SDS011;39682;51.490;7.310;2023-04-15T05:13:11;19.38;;;10.57;;
53765;SDS011;39682;51.490;7.310;2023-04-15T05:15:37;20.40;;;10.85;;
53765;SDS011;39682;51.490;7.310;2023-04-15T05:18:05;18.98;;;10.88;;
53765;SDS011;39682;51.490;7.310;2023-04-15T05:20:31;17.20;;;11.27;;
53765;SDS011;39682;51.490;7.310;2023-04-15T05:22:57;19.15;;;10.32;;
53765;SDS011;39682;51.490;7.310;2023-04-15T05:25:23;17.50;;;11.18;;
53765;SDS011;39682;51.490;7.310;2023-04-15T05:27:49;16.15;;;10.40;;
53765;SDS011;39682;51.490;7.310;2023-04-15T05:30:15;15.68;;;10.13;;
53765;SDS011;39682;51.490;7.310;2023-04-15T05:32:41;17.10;;;11.18;;
53765;SDS011;39682;51.490;7.310;2023-04-15T05:35:07;14.27;;;9.57;;
53765;SDS011;39682;51.490;7.310;2023-04-15T05:37:33;17.05;;;10.57;;
53765;SDS011;39682;51.490;7.310;2023-04-15T05:40:00;15.60;;;10.27;;
53765;SDS011;39682;51.490;7.310;2023-04-15T05:42:26;14.60;;;10.35;;
53765;SDS011;39682;51.490;7.310;2023-04-15T05:44:52;14.48;;;10.02;;
53765;SDS011;39682;51.490;7.310;2023-04-15T05:47:19;15.90;;;10.30;;
53765;SDS011;39682;51.490;7.310;2023-04-15T05:49:45;16.95;;;9.73;;
53765;SDS011;39682;51.490;7.310;2023-04-15T05:52:11;20.00;;;11.13;;
53765;SDS011;39682;51.490;7.310;2023-04-15T05:54:37;15.85;;;10.00;;
53765;SDS011;39682;51.490;7.310;2023-04-15T05:57:03;14.27;;;9.65;;
53765;SDS011;39682;51.490;7.310;2023-04-15T05:59:29;15.35;;;10.45;;
53765;SDS011;39682;51.490;7.310;2023-04-15T06:01:55;17.85;;;9.88;;
53765;SDS011;39682;51.490;7.310;2023-04-15T06:04:21;14.60;;;9.88;;
53765;SDS011;39682;51.490;7.310;2023-04-15T06:06:48;15.90;;;10.98;;
53765;SDS011;39682;51.490;7.310;2023-04-15T06:09:13;14.70;;;10.45;;
53765;SDS011;39682;51.490;7.310;2023-04-15T06:11:39;13.57;;;9.90;;
53765;SDS011;39682;51.490;7.310;2023-04-15T06:14:05;19.02;;;10.20;;
53765;SDS011;39682;51.490;7.310;2023-04-15T06:16:32;17.17;;;10.98;;
53765;SDS011;39682;51.490;7.310;2023-04-15T06:18:58;15.60;;;10.40;;
53765;SDS011;39682;51.490;7.310;2023-04-15T06:21:24;14.68;;;9.95;;
53765;SDS011;39682;51.490;7.310;2023-04-15T06:23:50;15.35;;;9.90;;
53765;SDS011;39682;51.490;7.310;2023-04-15T06:26:16;14.45;;;9.55;;
53765;SDS011;39682;51.490;7.310;2023-04-15T06:28:42;15.98;;;10.40;;
53765;SDS011;39682;51.490;7.310;2023-04-15T06:31:08;19.35;;;9.88;;
53765;SDS011;39682;51.490;7.310;2023-04-15T06:33:34;14.18;;;10.13;;
53765;SDS011;39682;51.490;7.310;2023-04-15T06:36:00;15.85;;;10.00;;
53765;SDS011;39682;51.490;7.310;2023-04-15T06:38:26;16.13;;;10.38;;
53765;SDS011;39682;51.490;7.310;2023-04-15T06:40:52;16.27;;;10.95;;
53765;SDS011;39682;51.490;7.310;2023-04-15T06:43:18;16.88;;;10.85;;
53765;SDS011;39682;51.490;7.310;2023-04-15T06:45:44;15.68;;;10.80;;
53765;SDS011;39682;51.490;7.310;2023-04-15T06:48:11;14.60;;;10.23;;
53765;SDS011;39682;51.490;7.310;2023-04-15T06:50:37;15.68;;;10.88;;
53765;SDS011;39682;51.490;7.310;2023-04-15T06:53:03;16.83;;;11.48;;
53765;SDS011;39682;51.490;7.310;2023-04-15T06:55:29;16.45;;;10.52;;
53765;SDS011;39682;51.490;7.310;2023-04-15T06:57:56;14.05;;;10.45;;
53765;SDS011;39682;51.490;7.310;2023-04-15T07:00:22;16.70;;;10.23;;
53765;SDS011;39682;51.490;7.310;2023-04-15T07:02:48;15.27;;;9.82;;
53765;SDS011;39682;51.490;7.310;2023-04-15T07:05:14;13.30;;;9.98;;
53765;SDS011;39682;51.490;7.310;2023-04-15T07:07:40;15.52;;;11.68;;
53765;SDS011;39682;51.490;7.310;2023-04-15T07:10:06;14.50;;;9.55;;
53765;SDS011;39682;51.490;7.310;2023-04-15T07:12:32;17.55;;;10.77;;
53765;SDS011;39682;51.490;7.310;2023-04-15T07:14:59;15.40;;;10.32;;
53765;SDS011;39682;51.490;7.310;2023-04-15T07:17:25;18.17;;;10.88;;
53765;SDS011;39682;51.490;7.310;2023-04-15T07:19:51;14.93;;;9.65;;
53765;SDS011;39682;51.490;7.310;2023-04-15T07:22:17;13.80;;;9.05;;
53765;SDS011;39682;51.490;7.310;2023-04-15T07:24:43;16.83;;;10.23;;
53765;SDS011;39682;51.490;7.310;2023-04-15T07:27:09;17.85;;;10.70;;
53765;SDS011;39682;51.490;7.310;2023-04-15T07:29:36;15.65;;;9.43;;
53765;SDS011;39682;51.490;7.310;2023-04-15T07:32:02;13.40;;;8.90;;
53765;SDS011;39682;51.490;7.310;2023-04-15T07:34:28;13.70;;;10.77;;
53765;SDS011;39682;51.490;7.310;2023-04-15T07:36:54;13.40;;;8.77;;
53765;SDS011;39682;51.490;7.310;2023-04-15T07:39:20;14.38;;;9.07;;
53765;SDS011;39682;51.490;7.310;2023-04-15T07:41:46;13.00;;;9.43;;
53765;SDS011;39682;51.490;7.310;2023-04-15T07:44:13;14.57;;;9.48;;
53765;SDS011;39682;51.490;7.310;2023-04-15T07:46:39;14.38;;;8.77;;
53765;SDS011;39682;51.490;7.310;2023-04-15T07:49:05;11.18;;;8.77;;
53765;SDS011;39682;51.490;7.310;2023-04-15T07:51:31;13.27;;;8.70;;
53765;SDS011;39682;51.490;7.310;2023-04-15T07:53:57;10.50;;;8.18;;
53765;SDS011;39682;51.490;7.310;2023-04-15T07:56:23;12.88;;;8.35;;
53765;SDS011;39682;51.490;7.310;2023-04-15T07:58:50;11.55;;;7.97;;
53765;SDS011;39682;51.490;7.310;2023-04-15T08:01:16;11.30;;;7.40;;
53765;SDS011;39682;51.490;7.310;2023-04-15T08:03:42;10.52;;;6.95;;
53765;SDS011;39682;51.490;7.310;2023-04-15T08:06:08;14.43;;;7.30;;
53765;SDS011;39682;51.490;7.310;2023-04-15T08:08:34;10.35;;;6.85;;
53765;SDS011;39682;51.490;7.310;2023-04-15T08:11:00;9.38;;;6.38;;
53765;SDS011;39682;51.490;7.310;2023-04-15T08:13:26;10.18;;;6.78;;
53765;SDS011;39682;51.490;7.310;2023-04-15T08:15:55;10.13;;;6.68;;
53765;SDS011;39682;51.490;7.310;2023-04-15T08:18:38;12.57;;;7.80;;
53765;SDS011;39682;51.490;7.310;2023-04-15T08:21:04;7.90;;;5.93;;
53765;SDS011;39682;51.490;7.310;2023-04-15T08:23:30;9.20;;;6.03;;
53765;SDS011;39682;51.490;7.310;2023-04-15T08:25:57;7.10;;;5.07;;
53765;SDS011;39682;51.490;7.310;2023-04-15T08:28:23;6.45;;;4.75;;
53765;SDS011;39682;51.490;7.310;2023-04-15T08:30:49;9.52;;;5.57;;
53765;SDS011;39682;51.490;7.310;2023-04-15T08:33:15;7.80;;;5.75;;
53765;SDS011;39682;51.490;7.310;2023-04-15T08:35:41;7.07;;;5.57;;
53765;SDS011;39682;51.490;7.310;2023-04-15T08:38:07;6.60;;;5.15;;
53765;SDS011;39682;51.490;7.310;2023-04-15T08:40:35;8.80;;;5.55;;
53765;SDS011;39682;51.490;7.310;2023-04-15T08:43:05;7.93;;;5.45;;
53765;SDS011;39682;51.490;7.310;2023-04-15T08:45:32;8.55;;;6.28;;
53765;SDS011;39682;51.490;7.310;2023-04-15T08:47:58;7.30;;;5.60;;
53765;SDS011;39682;51.490;7.310;2023-04-15T08:50:25;8.88;;;5.90;;
53765;SDS011;39682;51.490;7.310;2023-04-15T08:52:54;7.22;;;4.60;;
53765;SDS011;39682;51.490;7.310;2023-04-15T08:55:20;7.20;;;4.97;;
53765;SDS011;39682;51.490;7.310;2023-04-15T08:57:46;6.70;;;4.00;;
53765;SDS011;39682;51.490;7.310;2023-04-15T09:00:12;4.93;;;3.70;;
53765;SDS011;39682;51.490;7.310;2023-04-15T09:02:38;3.95;;;3.15;;
53765;SDS011;39682;51.490;7.310;2023-04-15T09:05:05;5.22;;;3.50;;
53765;SDS011;39682;51.490;7.310;2023-04-15T09:07:34;6.07;;;3.83;;
53765;SDS011;39682;51.490;7.310;2023-04-15T09:10:01;4.45;;;3.63;;
53765;SDS011;39682;51.490;7.310;2023-04-15T09:12:27;7.20;;;4.10;;
53765;SDS011;39682;51.490;7.310;2023-04-15T09:14:53;5.75;;;4.25;;
53765;SDS011;39682;51.490;7.310;2023-04-15T09:17:19;5.80;;;3.67;;
53765;SDS011;39682;51.490;7.310;2023-04-15T09:19:45;5.65;;;4.40;;
53765;SDS011;39682;51.490;7.310;2023-04-15T09:22:11;6.80;;;4.68;;
53765;SDS011;39682;51.490;7.310;2023-04-15T09:24:38;5.95;;;4.32;;
53765;SDS011;39682;51.490;7.310;2023-04-15T09:27:06;8.20;;;4.40;;
53765;SDS011;39682;51.490;7.310;2023-04-15T09:29:32;6.47;;;4.95;;
53765;SDS011;39682;51.490;7.310;2023-04-15T09:32:08;5.88;;;4.53;;
53765;SDS011;39682;51.490;7.310;2023-04-15T09:34:35;5.82;;;4.80;;
53765;SDS011;39682;51.490;7.310;2023-04-15T09:37:01;5.90;;;4.45;;
53765;SDS011;39682;51.490;7.310;2023-04-15T09:39:41;7.60;;;4.68;;
53765;SDS011;39682;51.490;7.310;2023-04-15T09:42:09;7.18;;;4.35;;
53765;SDS011;39682;51.490;7.310;2023-04-15T09:44:35;7.38;;;4.20;;
53765;SDS011;39682;51.490;7.310;2023-04-15T09:47:02;6.28;;;5.10;;
53765;SDS011;39682;51.490;7.310;2023-04-15T09:49:28;6.18;;;4.82;;
53765;SDS011;39682;51.490;7.310;2023-04-15T09:51:58;6.95;;;5.15;;
53765;SDS011;39682;51.490;7.310;2023-04-15T09:54:25;8.25;;;5.32;;
53765;SDS011;39682;51.490;7.310;2023-04-15T09:57:03;6.82;;;5.45;;
53765;SDS011;39682;51.490;7.310;2023-04-15T09:59:29;6.85;;;5.07;;
53765;SDS011;39682;51.490;7.310;2023-04-15T10:01:55;7.07;;;4.85;;
53765;SDS011;39682;51.490;7.310;2023-04-15T10:04:21;8.27;;;5.78;;
53765;SDS011;39682;51.490;7.310;2023-04-15T10:06:48;7.25;;;5.10;;
53765;SDS011;39682;51.490;7.310;2023-04-15T10:09:14;7.75;;;5.55;;
53765;SDS011;39682;51.490;7.310;2023-04-15T10:11:41;10.23;;;6.05;;
53765;SDS011;39682;51.490;7.310;2023-04-15T10:14:08;7.85;;;6.35;;
53765;SDS011;39682;51.490;7.310;2023-04-15T10:16:34;8.55;;;5.82;;
53765;SDS011;39682;51.490;7.310;2023-04-15T10:19:03;6.95;;;5.65;;
53765;SDS011;39682;51.490;7.310;2023-04-15T10:21:31;10.65;;;7.03;;
53765;SDS011;39682;51.490;7.310;2023-04-15T10:23:57;9.80;;;6.93;;
53765;SDS011;39682;51.490;7.310;2023-04-15T10:26:25;9.70;;;6.40;;
53765;SDS011;39682;51.490;7.310;2023-04-15T10:28:51;8.85;;;6.07;;
53765;SDS011;39682;51.490;7.310;2023-04-15T10:31:17;8.48;;;5.75;;
53765;SDS011;39682;51.490;7.310;2023-04-15T10:33:44;7.38;;;5.25;;
53765;SDS011;39682;51.490;7.310;2023-04-15T10:36:11;8.73;;;5.70;;
53765;SDS011;39682;51.490;7.310;2023-04-15T10:38:41;7.90;;;5.05;;
53765;SDS011;39682;51.490;7.310;2023-04-15T10:41:23;6.38;;;4.80;;
53765;SDS011;39682;51.490;7.310;2023-04-15T10:43:51;7.13;;;5.10;;
53765;SDS011;39682;51.490;7.310;2023-04-15T10:46:18;6.60;;;4.78;;
53765;SDS011;39682;51.490;7.310;2023-04-15T10:48:51;7.18;;;4.43;;
53765;SDS011;39682;51.490;7.310;2023-04-15T10:51:30;6.60;;;4.55;;
53765;SDS011;39682;51.490;7.310;2023-04-15T10:53:57;7.00;;;4.72;;
53765;SDS011;39682;51.490;7.310;2023-04-15T10:56:23;6.78;;;4.10;;
53765;SDS011;39682;51.490;7.310;2023-04-15T10:58:49;6.55;;;4.95;;
53765;SDS011;39682;51.490;7.310;2023-04-15T11:01:15;5.38;;;4.15;;
53765;SDS011;39682;51.490;7.310;2023-04-15T11:03:44;6.78;;;4.50;;
53765;SDS011;39682;51.490;7.310;2023-04-15T11:06:10;6.85;;;4.55;;
53765;SDS011;39682;51.490;7.310;2023-04-15T11:08:52;6.00;;;3.67;;
53765;SDS011;39682;51.490;7.310;2023-04-15T11:11:18;5.70;;;3.88;;
53765;SDS011;39682;51.490;7.310;2023-04-15T11:13:48;6.68;;;4.30;;
53765;SDS011;39682;51.490;7.310;2023-04-15T11:16:14;10.40;;;4.65;;
53765;SDS011;39682;51.490;7.310;2023-04-15T11:18:40;6.35;;;4.20;;
53765;SDS011;39682;51.490;7.310;2023-04-15T11:21:06;6.00;;;4.00;;
53765;SDS011;39682;51.490;7.310;2023-04-15T11:26:00;7.72;;;4.88;;
53765;SDS011;39682;51.490;7.310;2023-04-15T11:28:28;10.80;;;4.65;;
53765;SDS011;39682;51.490;7.310;2023-04-15T11:30:54;5.50;;;4.13;;
53765;SDS011;39682;51.490;7.310;2023-04-15T11:33:21;6.45;;;3.97;;
53765;SDS011;39682;51.490;7.310;2023-04-15T11:35:48;5.93;;;4.13;;
53765;SDS011;39682;51.490;7.310;2023-04-15T11:38:14;7.40;;;4.22;;
53765;SDS011;39682;51.490;7.310;2023-04-15T11:40:41;7.72;;;4.43;;
53765;SDS011;39682;51.490;7.310;2023-04-15T11:43:08;5.90;;;4.30;;
53765;SDS011;39682;51.490;7.310;2023-04-15T11:45:35;5.68;;;4.30;;
53765;SDS011;39682;51.490;7.310;2023-04-15T11:48:07;6.55;;;4.05;;
53765;SDS011;39682;51.490;7.310;2023-04-15T11:50:34;6.55;;;4.75;;
53765;SDS011;39682;51.490;7.310;2023-04-15T11:53:02;8.38;;;5.32;;
53765;SDS011;39682;51.490;7.310;2023-04-15T11:55:28;7.00;;;4.18;;
53765;SDS011;39682;51.490;7.310;2023-04-15T11:58:14;4.93;;;4.00;;
53765;SDS011;39682;51.490;7.310;2023-04-15T12:00:42;6.30;;;4.25;;
53765;SDS011;39682;51.490;7.310;2023-04-15T12:08:23;5.80;;;3.63;;
53765;SDS011;39682;51.490;7.310;2023-04-15T12:10:50;6.80;;;4.60;;
53765;SDS011;39682;51.490;7.310;2023-04-15T12:13:16;6.78;;;4.28;;
53765;SDS011;39682;51.490;7.310;2023-04-15T12:15:42;6.57;;;4.40;;
53765;SDS011;39682;51.490;7.310;2023-04-15T12:18:15;5.47;;;3.80;;
53765;SDS011;39682;51.490;7.310;2023-04-15T12:20:44;6.40;;;4.63;;
53765;SDS011;39682;51.490;7.310;2023-04-15T12:23:11;8.07;;;5.13;;
53765;SDS011;39682;51.490;7.310;2023-04-15T12:25:37;6.25;;;4.45;;
53765;SDS011;39682;51.490;7.310;2023-04-15T12:28:09;7.18;;;4.55;;
53765;SDS011;39682;51.490;7.310;2023-04-15T12:30:36;7.72;;;4.25;;
53765;SDS011;39682;51.490;7.310;2023-04-15T12:33:02;6.32;;;4.07;;
53765;SDS011;39682;51.490;7.310;2023-04-15T12:35:28;5.30;;;3.47;;
53765;SDS011;39682;51.490;7.310;2023-04-15T12:37:54;9.80;;;3.90;;
53765;SDS011;39682;51.490;7.310;2023-04-15T12:40:20;5.53;;;4.10;;
53765;SDS011;39682;51.490;7.310;2023-04-15T12:42:46;5.93;;;4.20;;
53765;SDS011;39682;51.490;7.310;2023-04-15T12:45:12;5.50;;;3.70;;
53765;SDS011;39682;51.490;7.310;2023-04-15T12:47:38;5.68;;;3.65;;
53765;SDS011;39682;51.490;7.310;2023-04-15T12:50:04;5.45;;;3.90;;
53765;SDS011;39682;51.490;7.310;2023-04-15T12:52:31;6.35;;;4.03;;
53765;SDS011;39682;51.490;7.310;2023-04-15T12:54:57;5.00;;;3.63;;
53765;SDS011;39682;51.490;7.310;2023-04-15T12:57:24;5.28;;;3.20;;
53765;SDS011;39682;51.490;7.310;2023-04-15T12:59:50;6.03;;;3.58;;
53765;SDS011;39682;51.490;7.310;2023-04-15T13:02:16;6.63;;;3.92;;
53765;SDS011;39682;51.490;7.310;2023-04-15T13:04:42;7.55;;;3.90;;
53765;SDS011;39682;51.490;7.310;2023-04-15T13:07:08;6.30;;;3.83;;
53765;SDS011;39682;51.490;7.310;2023-04-15T13:09:34;5.93;;;3.53;;
53765;SDS011;39682;51.490;7.310;2023-04-15T13:12:00;6.47;;;3.92;;
53765;SDS011;39682;51.490;7.310;2023-04-15T13:14:26;4.18;;;3.03;;
53765;SDS011;39682;51.490;7.310;2023-04-15T13:16:53;4.32;;;3.00;;
53765;SDS011;39682;51.490;7.310;2023-04-15T13:19:19;5.38;;;3.10;;
53765;SDS011;39682;51.490;7.310;2023-04-15T13:21:45;5.18;;;2.90;;
53765;SDS011;39682;51.490;7.310;2023-04-15T13:24:11;5.15;;;3.28;;
53765;SDS011;39682;51.490;7.310;2023-04-15T13:26:37;5.68;;;2.78;;
53765;SDS011;39682;51.490;7.310;2023-04-15T13:29:03;5.90;;;3.50;;
53765;SDS011;39682;51.490;7.310;2023-04-15T13:31:29;4.38;;;2.70;;
53765;SDS011;39682;51.490;7.310;2023-04-15T13:33:55;5.15;;;3.20;;
53765;SDS011;39682;51.490;7.310;2023-04-15T13:36:21;4.13;;;2.83;;
53765;SDS011;39682;51.490;7.310;2023-04-15T13:38:47;4.38;;;3.10;;
53765;SDS011;39682;51.490;7.310;2023-04-15T13:41:13;4.28;;;3.15;;
53765;SDS011;39682;51.490;7.310;2023-04-15T13:43:40;4.70;;;3.20;;
53765;SDS011;39682;51.490;7.310;2023-04-15T13:46:06;5.05;;;3.15;;
53765;SDS011;39682;51.490;7.310;2023-04-15T13:48:32;6.32;;;2.90;;
53765;SDS011;39682;51.490;7.310;2023-04-15T13:50:58;4.82;;;3.10;;
53765;SDS011;39682;51.490;7.310;2023-04-15T13:53:24;5.63;;;3.38;;
53765;SDS011;39682;51.490;7.310;2023-04-15T13:55:50;3.67;;;2.92;;
53765;SDS011;39682;51.490;7.310;2023-04-15T13:58:16;3.95;;;2.75;;
53765;SDS011;39682;51.490;7.310;2023-04-15T14:00:42;4.25;;;2.13;;
53765;SDS011;39682;51.490;7.310;2023-04-15T14:03:08;3.60;;;2.42;;
53765;SDS011;39682;51.490;7.310;2023-04-15T14:05:34;2.53;;;1.48;;
53765;SDS011;39682;51.490;7.310;2023-04-15T14:08:00;4.80;;;2.88;;
53765;SDS011;39682;51.490;7.310;2023-04-15T14:10:26;4.15;;;2.90;;
53765;SDS011;39682;51.490;7.310;2023-04-15T14:12:52;5.25;;;2.80;;
53765;SDS011;39682;51.490;7.310;2023-04-15T14:15:18;5.70;;;2.55;;
53765;SDS011;39682;51.490;7.310;2023-04-15T14:17:44;4.07;;;2.53;;
53765;SDS011;39682;51.490;7.310;2023-04-15T14:20:10;4.53;;;2.53;;
53765;SDS011;39682;51.490;7.310;2023-04-15T14:22:36;4.47;;;3.20;;
53765;SDS011;39682;51.490;7.310;2023-04-15T14:25:02;3.80;;;2.80;;
53765;SDS011;39682;51.490;7.310;2023-04-15T14:27:28;5.00;;;2.47;;
53765;SDS011;39682;51.490;7.310;2023-04-15T14:29:54;3.97;;;2.65;;
53765;SDS011;39682;51.490;7.310;2023-04-15T14:32:21;4.22;;;2.50;;
53765;SDS011;39682;51.490;7.310;2023-04-15T14:34:48;4.72;;;2.90;;
53765;SDS011;39682;51.490;7.310;2023-04-15T14:37:14;3.50;;;2.80;;
53765;SDS011;39682;51.490;7.310;2023-04-15T14:39:40;4.10;;;2.90;;
53765;SDS011;39682;51.490;7.310;2023-04-15T14:42:06;4.22;;;2.78;;